Last Mistake — WDH2903 — position and weather

sailwx.info

Track history (hours):
 
Tides and Currents Weather Stations Pressure Air Temp Water Temp Dewpoint Dewpoint Depression Visibility Wind Speed Wind Dir Waves Ship Positions

Last Mistake

Owner: Brown, Robert L, Melbourne, FL. More information available from US FCC via Universal Licensing System.

Last reported at 2017-Nov-24 18:31 UTC. Time now 2018-Feb-25 00:13 UTC.
Position N 31°55' W 081°06'.
Warning: this ship's position is months out of date.

Length 16 m.

Type: Pleasure craft. MMSI: 367602360.

Date/timePositionNaut miles runAvg speedWind from/ knotsBaromVisibWave heightAir tempDewpointWater temp
2017-Nov-24 18:31N 31°55' W 081°06'1 8.1
2017-Nov-24 18:24N 31°55' W 081°05'2 5.7
2017-Nov-24 18:00N 31°57' W 081°04'3 6.4
2017-Nov-24 17:28N 31°60' W 081°01'3 5.7
2017-Nov-24 17:00N 32°02' W 081°03'3 5.9
2017-Nov-24 16:30N 32°04' W 080°60'3 6.8
2017-Nov-24 16:00N 32°05' W 080°56'3 5.1
2017-Nov-24 15:30N 32°07' W 080°54'3 6.6
2017-Nov-24 15:00N 32°09' W 080°51'15 5.6
2017-Nov-24 12:18N 32°21' W 080°40'2 6.6
2017-Nov-24 12:00N 32°23' W 080°41'  
2017-Nov-17 14:02N 34°43' W 076°49'0 7.3
2017-Nov-17 14:00N 34°43' W 076°49'4 7.4
2017-Nov-17 13:30N 34°43' W 076°44'3 5.2
2017-Nov-17 13:00N 34°44' W 076°41'2 4.9
2017-Nov-17 12:30N 34°47' W 076°41'3 5.8
2017-Nov-17 12:00N 34°49' W 076°41'2 0.1
2017-Nov-16 23:32N 34°51' W 076°42'0 0.0
2017-Nov-16 21:41N 34°51' W 076°41'0 0.0
2017-Nov-16 21:26N 34°51' W 076°41'0 0.0
2017-Nov-16 19:49N 34°51' W 076°42'  
Track history (hours):
 
Tides and Currents Weather Stations Pressure Air Temp Water Temp Dewpoint Dewpoint Depression Visibility Wind Speed Wind Dir Waves Ship Positions

Last Mistake

Owner: Brown, Robert L, Melbourne, FL. More information available from US FCC via Universal Licensing System.

Last reported at 2017-Nov-24 18:31 UTC. Time now 2018-Feb-25 00:13 UTC.
Position N 31°55' W 081°06'.
Warning: this ship's position is months out of date.

Length 16 m.

Type: Pleasure craft. MMSI: 367602360.

Date/timePositionNaut miles runAvg speedWind from/ knotsBaromVisibWave heightAir tempDewpointWater temp
2017-Nov-24 18:31N 31°55' W 081°06'1 8.1
2017-Nov-24 18:24N 31°55' W 081°05'2 5.7
2017-Nov-24 18:00N 31°57' W 081°04'3 6.4
2017-Nov-24 17:28N 31°60' W 081°01'3 5.7
2017-Nov-24 17:00N 32°02' W 081°03'3 5.9
2017-Nov-24 16:30N 32°04' W 080°60'3 6.8
2017-Nov-24 16:00N 32°05' W 080°56'3 5.1
2017-Nov-24 15:30N 32°07' W 080°54'3 6.6
2017-Nov-24 15:00N 32°09' W 080°51'15 5.6
2017-Nov-24 12:18N 32°21' W 080°40'2 6.6
2017-Nov-24 12:00N 32°23' W 080°41'  
2017-Nov-17 14:02N 34°43' W 076°49'0 7.3
2017-Nov-17 14:00N 34°43' W 076°49'4 7.4
2017-Nov-17 13:30N 34°43' W 076°44'3 5.2
2017-Nov-17 13:00N 34°44' W 076°41'2 4.9
2017-Nov-17 12:30N 34°47' W 076°41'3 5.8
2017-Nov-17 12:00N 34°49' W 076°41'2 0.1
2017-Nov-16 23:32N 34°51' W 076°42'0 0.0
2017-Nov-16 21:41N 34°51' W 076°41'0 0.0
2017-Nov-16 21:26N 34°51' W 076°41'0 0.0
2017-Nov-16 19:49N 34°51' W 076°42'  

Dump ship's entire track history